Terminal Aerodrome Forecast
Issued by NWS

Current Version | Previous Version | Graphics & Text | Print | Product List | Glossary On
Versions: 1 2 3 4 5 6 7 8 9 10 11 12 13 14 15 16 17
400
FTUS41 KPBZ 161947 AAA
TAFMGW
TAF AMD
KMGW 161947Z 1620/1718 31010KT P6SM SCT035
     FM162100 30007KT P6SM SCT200
     FM171600 20006KT P6SM SCT050=

USA.gov is the U.S. government's official web portal to all federal, state and local government web resources and services.